Time;durP1;ratioP1;P1;durP2;ratioP2;P2;SDS_P1;SDS_P2;PMS_P1;PMS_P2;Temp;Humidity;BMP_temperature;BMP_pressure;BME280_temperature;BME280_humidity;BME280_pressure;Samples;Min_cycle;Max_cycle;Signal;HPM_P1;HPM_P2
2021/11/07 00:00:12;;;;;;;;;;;10.80;99.90;;;;;;5012476;28;19916;-80
2021/11/07 00:05:05;;;;;;;;;;;10.80;99.90;;;;;;5013863;28;19909;-80
2021/11/07 00:10:08;;;;;;;;;;;10.80;99.90;;;;;;5013917;28;19906;-80
2021/11/07 00:12:40;;;;;;;;;;;10.80;99.90;;;;;;5012302;28;20263;-80
2021/11/07 00:15:06;;;;;;;;;;;10.80;99.90;;;;;;5013782;28;20333;-80
2021/11/07 00:17:33;;;;;;;;;;;10.80;99.90;;;;;;5013751;28;19928;-80
2021/11/07 00:20:15;;;;;;;;;;;10.80;99.90;;;;;;5013795;28;19905;-80
2021/11/07 00:22:50;;;;;;;;;;;10.90;99.90;;;;;;5012180;28;19909;-80
2021/11/07 00:25:40;;;;;;;;;;;10.90;99.90;;;;;;5014222;28;20286;-80
2021/11/07 00:28:10;;;;;;;;;;;10.90;99.90;;;;;;5013668;28;19905;-80
2021/11/07 00:31:22;;;;;;;;;;;10.90;99.90;;;;;;5012125;28;19905;-79
2021/11/07 00:33:50;;;;;;;;;;;10.90;99.90;;;;;;5010461;28;19913;-82
2021/11/07 00:39:11;;;;;;;;;;;10.90;99.90;;;;;;5013713;28;19964;-79
2021/11/07 00:41:50;;;;;;;;;;;10.80;99.90;;;;;;5012061;28;19995;-80
2021/11/07 00:46:54;;;;;;;;;;;10.90;99.90;;;;;;5013268;28;19909;-79
2021/11/07 00:49:45;;;;;;;;;;;10.90;99.90;;;;;;5013948;28;19913;-80
2021/11/07 00:54:53;;;;;;;;;;;10.80;99.90;;;;;;5013480;28;19906;-79
2021/11/07 00:59:58;;;;;;;;;;;10.80;99.90;;;;;;5013185;28;20316;-80
2021/11/07 01:02:24;;;;;;;;;;;10.80;99.90;;;;;;5011873;28;20369;-79
2021/11/07 01:04:50;;;;;;;;;;;10.90;99.90;;;;;;5013324;28;20080;-80
2021/11/07 01:07:17;;;;;;;;;;;10.80;99.90;;;;;;5013327;28;19913;-79
2021/11/07 01:09:43;;;;;;;;;;;10.80;99.90;;;;;;5013274;28;19917;-80
2021/11/07 01:12:09;;;;;;;;;;;10.90;99.90;;;;;;5011624;28;19922;-80
2021/11/07 01:14:35;;;;;;;;;;;10.90;99.90;;;;;;5015080;28;19905;-80
2021/11/07 01:17:01;;;;;;;;;;;10.90;99.90;;;;;;5016781;28;20368;-80
2021/11/07 01:19:26;;;;;;;;;;;10.90;99.90;;;;;;5015461;28;19937;-81
2021/11/07 01:21:52;;;;;;;;;;;11.00;99.90;;;;;;5016832;28;19960;-80
2021/11/07 01:24:23;;;;;;;;;;;11.00;99.90;;;;;;5016604;28;19936;-81
2021/11/07 01:26:52;;;;;;;;;;;11.00;99.90;;;;;;5016662;28;19912;-80
2021/11/07 01:29:24;;;;;;;;;;;11.00;99.90;;;;;;5015338;28;20343;-80
2021/11/07 01:31:51;;;;;;;;;;;11.10;99.90;;;;;;5016721;28;19906;-80
2021/11/07 01:36:49;;;;;;;;;;;11.10;99.90;;;;;;5016406;28;19913;-80
2021/11/07 01:39:22;;;;;;;;;;;11.00;99.90;;;;;;5016590;28;19909;-80
2021/11/07 01:42:03;;;;;;;;;;;11.10;99.90;;;;;;5014855;28;20405;-80
2021/11/07 01:44:46;;;;;;;;;;;11.00;99.90;;;;;;5016403;28;19931;-79
2021/11/07 01:47:13;;;;;;;;;;;11.10;99.90;;;;;;5014728;28;19951;-80
2021/11/07 01:49:41;;;;;;;;;;;11.10;99.90;;;;;;5016641;28;19937;-81
2021/11/07 01:52:09;;;;;;;;;;;11.10;99.90;;;;;;5014882;28;20288;-80
2021/11/07 01:57:24;;;;;;;;;;;11.00;99.90;;;;;;5016050;28;19996;-80
2021/11/07 01:59:52;;;;;;;;;;;11.10;99.90;;;;;;5014763;28;20282;-82
2021/11/07 02:02:18;;;;;;;;;;;11.10;99.90;;;;;;5014800;28;19909;-80
2021/11/07 02:04:44;;;;;;;;;;;11.00;99.90;;;;;;5015978;28;19909;-80
2021/11/07 02:07:10;;;;;;;;;;;11.00;99.90;;;;;;5016068;28;19905;-81
2021/11/07 02:09:36;;;;;;;;;;;11.00;99.90;;;;;;5015854;28;19994;-80
2021/11/07 02:12:03;;;;;;;;;;;11.00;99.90;;;;;;5014088;28;20346;-79
2021/11/07 02:14:29;;;;;;;;;;;11.00;99.90;;;;;;5015839;28;19905;-81
2021/11/07 02:16:54;;;;;;;;;;;11.10;99.90;;;;;;5014396;28;19988;-81
2021/11/07 02:19:20;;;;;;;;;;;11.10;99.90;;;;;;5015635;28;20002;-80
2021/11/07 02:21:47;;;;;;;;;;;11.10;99.90;;;;;;5015653;28;19905;-81
2021/11/07 02:24:16;;;;;;;;;;;11.00;99.90;;;;;;5015766;28;20377;-80
2021/11/07 02:26:43;;;;;;;;;;;11.10;99.90;;;;;;5013090;28;19909;-80
2021/11/07 02:29:09;;;;;;;;;;;11.10;99.90;;;;;;5015475;28;19905;-80
2021/11/07 02:31:34;;;;;;;;;;;11.10;99.90;;;;;;5015393;28;19905;-80
2021/11/07 02:34:00;;;;;;;;;;;11.10;99.90;;;;;;5015353;28;19906;-78
2021/11/07 02:36:25;;;;;;;;;;;11.10;99.90;;;;;;5015719;28;19905;-81
2021/11/07 02:38:51;;;;;;;;;;;11.10;99.90;;;;;;5013908;28;19998;-79
2021/11/07 02:41:17;;;;;;;;;;;11.00;99.90;;;;;;5015228;28;19905;-80
2021/11/07 02:43:47;;;;;;;;;;;11.00;99.90;;;;;;5013825;28;19916;-81
2021/11/07 02:46:17;;;;;;;;;;;10.90;99.90;;;;;;5015216;28;19911;-80
2021/11/07 02:48:44;;;;;;;;;;;11.00;99.90;;;;;;5015274;28;19905;-80
2021/11/07 02:51:10;;;;;;;;;;;11.00;99.90;;;;;;5015052;28;19906;-79
2021/11/07 02:53:35;;;;;;;;;;;10.90;99.90;;;;;;5015055;28;19905;-79
2021/11/07 02:56:01;;;;;;;;;;;11.00;99.90;;;;;;5014956;28;19909;-79
2021/11/07 02:58:27;;;;;;;;;;;10.90;99.90;;;;;;5014935;28;19905;-79
2021/11/07 03:00:53;;;;;;;;;;;10.90;99.90;;;;;;5013604;28;19957;-80
2021/11/07 03:03:18;;;;;;;;;;;11.00;99.90;;;;;;5014776;28;20385;-80
2021/11/07 03:05:44;;;;;;;;;;;11.00;99.90;;;;;;5013543;28;19906;-80
2021/11/07 03:08:10;;;;;;;;;;;11.00;99.90;;;;;;5014746;28;20321;-80
2021/11/07 03:10:35;;;;;;;;;;;11.00;99.90;;;;;;5014490;28;20492;-80
2021/11/07 03:13:11;;;;;;;;;;;11.00;99.90;;;;;;5014837;28;19999;-79
2021/11/07 03:15:39;;;;;;;;;;;11.00;99.90;;;;;;5014883;28;19913;-79
2021/11/07 03:18:05;;;;;;;;;;;11.00;99.90;;;;;;5013281;28;19909;-79
2021/11/07 03:20:31;;;;;;;;;;;11.10;99.90;;;;;;5014525;28;19909;-81
2021/11/07 03:22:57;;;;;;;;;;;11.00;99.90;;;;;;5014418;28;19906;-80
2021/11/07 03:25:24;;;;;;;;;;;11.10;99.90;;;;;;5013176;28;19912;-79
2021/11/07 03:27:51;;;;;;;;;;;11.10;99.90;;;;;;5014443;28;19912;-80
2021/11/07 03:35:45;;;;;;;;;;;11.10;99.90;;;;;;5014417;28;19912;-79
2021/11/07 03:38:11;;;;;;;;;;;11.20;99.90;;;;;;5013785;28;20004;-81
2021/11/07 03:40:37;;;;;;;;;;;11.20;99.90;;;;;;5014540;28;19944;-79
2021/11/07 03:43:02;;;;;;;;;;;11.30;99.90;;;;;;5014132;28;19912;-79
2021/11/07 03:45:28;;;;;;;;;;;11.20;99.90;;;;;;5014309;28;20004;-80
2021/11/07 03:47:54;;;;;;;;;;;11.30;99.90;;;;;;5014176;28;19913;-80
2021/11/07 03:50:20;;;;;;;;;;;11.30;99.90;;;;;;5014076;28;20004;-79
2021/11/07 03:52:47;;;;;;;;;;;11.30;99.90;;;;;;5014239;28;20273;-81
2021/11/07 03:55:13;;;;;;;;;;;11.40;99.90;;;;;;5012776;28;19960;-80
2021/11/07 03:57:38;;;;;;;;;;;11.40;99.90;;;;;;5014020;28;20329;-80
2021/11/07 04:00:11;;;;;;;;;;;11.30;99.90;;;;;;5014175;28;19913;-80
2021/11/07 04:02:37;;;;;;;;;;;11.40;99.90;;;;;;5012667;28;19996;-81
2021/11/07 04:05:03;;;;;;;;;;;11.40;99.90;;;;;;5014038;28;19909;-80
2021/11/07 04:07:28;;;;;;;;;;;11.40;99.90;;;;;;5013877;28;19932;-80
2021/11/07 04:09:54;;;;;;;;;;;11.40;99.90;;;;;;5013868;28;19905;-80
2021/11/07 04:12:20;;;;;;;;;;;11.40;99.90;;;;;;5013720;28;20305;-79
2021/11/07 04:14:45;;;;;;;;;;;11.40;99.90;;;;;;5013899;28;19992;-80
2021/11/07 04:17:11;;;;;;;;;;;11.40;99.90;;;;;;5013842;28;20007;-81
2021/11/07 04:19:37;;;;;;;;;;;11.40;99.90;;;;;;5012490;28;19905;-80
2021/11/07 04:22:05;;;;;;;;;;;11.40;99.90;;;;;;5013877;28;19919;-80
2021/11/07 04:24:31;;;;;;;;;;;11.40;99.90;;;;;;5012410;28;19913;-80
2021/11/07 04:26:57;;;;;;;;;;;11.50;99.90;;;;;;5013778;28;20263;-79
2021/11/07 04:29:23;;;;;;;;;;;11.50;99.90;;;;;;5013721;28;19906;-82
2021/11/07 04:31:49;;;;;;;;;;;11.50;99.90;;;;;;5013669;28;20354;-79
2021/11/07 04:34:14;;;;;;;;;;;11.50;99.90;;;;;;5013661;28;19910;-79
2021/11/07 04:36:40;;;;;;;;;;;11.50;99.90;;;;;;5012400;28;19961;-80
2021/11/07 04:39:06;;;;;;;;;;;11.50;99.90;;;;;;5013600;28;19905;-80
2021/11/07 04:41:31;;;;;;;;;;;11.50;99.90;;;;;;5013577;28;20281;-80
2021/11/07 04:43:57;;;;;;;;;;;11.60;99.90;;;;;;5013670;28;19909;-79
2021/11/07 04:46:23;;;;;;;;;;;11.60;99.90;;;;;;5013869;28;19992;-81
2021/11/07 04:48:49;;;;;;;;;;;11.60;99.90;;;;;;5014318;28;19906;-80
2021/11/07 04:51:15;;;;;;;;;;;11.50;99.90;;;;;;5017461;28;19905;-81
2021/11/07 04:53:40;;;;;;;;;;;11.60;99.90;;;;;;5017255;28;19916;-80
2021/11/07 04:56:06;;;;;;;;;;;11.60;99.90;;;;;;5017256;28;20354;-80
2021/11/07 04:58:32;;;;;;;;;;;11.60;99.90;;;;;;5017240;28;19928;-81
2021/11/07 05:00:58;;;;;;;;;;;11.50;99.90;;;;;;5017138;28;19909;-80
2021/11/07 05:03:24;;;;;;;;;;;11.60;99.90;;;;;;5017001;28;19959;-80
2021/11/07 05:05:50;;;;;;;;;;;11.60;99.90;;;;;;5017046;28;19906;-80
2021/11/07 05:08:16;;;;;;;;;;;11.60;99.90;;;;;;5017168;28;19906;-80
2021/11/07 05:10:41;;;;;;;;;;;11.60;99.90;;;;;;5016752;28;19918;-81
2021/11/07 05:13:09;;;;;;;;;;;11.60;99.90;;;;;;5016924;28;19952;-79
2021/11/07 05:15:35;;;;;;;;;;;11.60;99.90;;;;;;5017321;28;20324;-80
2021/11/07 05:18:02;;;;;;;;;;;11.60;99.90;;;;;;5017019;28;20289;-80
2021/11/07 05:20:28;;;;;;;;;;;11.60;99.90;;;;;;5017036;28;19912;-80
2021/11/07 05:22:54;;;;;;;;;;;11.60;99.90;;;;;;5016796;28;19913;-79
2021/11/07 05:25:20;;;;;;;;;;;11.60;99.90;;;;;;5015344;28;19916;-80
2021/11/07 05:27:46;;;;;;;;;;;11.50;99.90;;;;;;5016678;28;19906;-79
2021/11/07 05:30:13;;;;;;;;;;;11.50;99.90;;;;;;5016590;28;19910;-80
2021/11/07 05:32:39;;;;;;;;;;;11.60;99.90;;;;;;5015305;28;20263;-80
2021/11/07 05:35:06;;;;;;;;;;;11.60;99.90;;;;;;5016505;28;19988;-79
2021/11/07 05:37:31;;;;;;;;;;;11.60;99.90;;;;;;5016422;28;19989;-81
2021/11/07 05:39:57;;;;;;;;;;;11.60;99.90;;;;;;5016364;28;20002;-80
2021/11/07 05:42:23;;;;;;;;;;;11.60;99.90;;;;;;5016391;28;19905;-79
2021/11/07 05:44:48;;;;;;;;;;;11.60;99.90;;;;;;5016253;28;19960;-80
2021/11/07 05:47:14;;;;;;;;;;;11.70;99.90;;;;;;5016471;28;19940;-80
2021/11/07 05:49:40;;;;;;;;;;;11.70;99.90;;;;;;5016240;28;19944;-80
2021/11/07 05:52:06;;;;;;;;;;;11.70;99.90;;;;;;5016439;28;20003;-80
2021/11/07 05:54:32;;;;;;;;;;;11.70;99.90;;;;;;5014826;28;19911;-80
2021/11/07 05:57:00;;;;;;;;;;;11.70;99.90;;;;;;5016068;28;19912;-80
2021/11/07 05:59:25;;;;;;;;;;;11.80;99.90;;;;;;5014559;28;19945;-79
2021/11/07 06:01:51;;;;;;;;;;;11.80;99.90;;;;;;5016101;28;20400;-79
2021/11/07 06:04:17;;;;;;;;;;;11.80;99.90;;;;;;5015883;28;19996;-79
2021/11/07 06:06:42;;;;;;;;;;;11.80;99.90;;;;;;5014594;28;20251;-80
2021/11/07 06:09:09;;;;;;;;;;;11.80;99.90;;;;;;5016024;28;19963;-81
2021/11/07 06:11:34;;;;;;;;;;;11.90;99.90;;;;;;5015831;28;19924;-81
2021/11/07 06:14:01;;;;;;;;;;;11.90;99.90;;;;;;5015743;28;20144;-80
2021/11/07 06:16:27;;;;;;;;;;;11.90;99.90;;;;;;5015729;28;20431;-79
2021/11/07 06:18:52;;;;;;;;;;;11.90;99.90;;;;;;5015704;28;19906;-79
2021/11/07 06:21:18;;;;;;;;;;;11.90;99.90;;;;;;5015595;28;19928;-80
2021/11/07 06:23:46;;;;;;;;;;;12.00;99.90;;;;;;5015574;28;19953;-80
2021/11/07 06:26:12;;;;;;;;;;;11.90;99.90;;;;;;5014305;28;20425;-80
2021/11/07 06:28:37;;;;;;;;;;;11.90;99.90;;;;;;5015673;28;19951;-81
2021/11/07 06:31:05;;;;;;;;;;;11.90;99.90;;;;;;5015445;28;19905;-79
2021/11/07 06:33:31;;;;;;;;;;;11.90;99.90;;;;;;5014118;28;19909;-80
2021/11/07 06:35:57;;;;;;;;;;;11.90;99.90;;;;;;5015382;28;19909;-80
2021/11/07 06:38:23;;;;;;;;;;;11.90;99.90;;;;;;5015445;28;19909;-80
2021/11/07 06:40:48;;;;;;;;;;;11.90;99.90;;;;;;5015326;28;19906;-80
2021/11/07 06:43:14;;;;;;;;;;;12.00;99.90;;;;;;5015144;28;19913;-79
2021/11/07 06:45:40;;;;;;;;;;;12.00;99.90;;;;;;5015204;28;19905;-79
2021/11/07 06:48:06;;;;;;;;;;;12.00;99.90;;;;;;5015163;28;19917;-80
2021/11/07 06:50:32;;;;;;;;;;;12.00;99.90;;;;;;5013879;28;19905;-80
2021/11/07 06:52:58;;;;;;;;;;;12.10;99.90;;;;;;5015035;28;19909;-80
2021/11/07 06:55:24;;;;;;;;;;;12.10;99.90;;;;;;5015211;28;20430;-80
2021/11/07 06:57:50;;;;;;;;;;;12.00;99.90;;;;;;5015260;28;19957;-81
2021/11/07 07:00:17;;;;;;;;;;;12.10;99.90;;;;;;5013676;28;19952;-79
2021/11/07 07:02:43;;;;;;;;;;;12.00;99.90;;;;;;5013622;28;19905;-79
2021/11/07 07:05:11;;;;;;;;;;;12.10;99.90;;;;;;5014818;28;19916;-81
2021/11/07 07:07:39;;;;;;;;;;;12.10;99.90;;;;;;5014783;28;19996;-80
2021/11/07 07:10:09;;;;;;;;;;;12.20;99.90;;;;;;5014779;28;19905;-79
2021/11/07 07:12:49;;;;;;;;;;;12.20;99.90;;;;;;5012597;28;19913;-80
2021/11/07 07:15:24;;;;;;;;;;;12.30;99.90;;;;;;5014861;28;19905;-80
2021/11/07 07:20:40;;;;;;;;;;;12.30;99.90;;;;;;5014380;28;20282;-81
2021/11/07 07:28:35;;;;;;;;;;;12.40;99.90;;;;;;5014584;28;20358;-80
2021/11/07 07:33:50;;;;;;;;;;;12.40;99.90;;;;;;5014562;28;20345;-80
2021/11/07 07:36:15;;;;;;;;;;;12.50;99.90;;;;;;5013076;28;20282;-79
2021/11/07 07:38:41;;;;;;;;;;;12.60;99.90;;;;;;5012969;28;19910;-80
2021/11/07 07:41:07;;;;;;;;;;;12.60;99.90;;;;;;5014697;28;19912;-79
2021/11/07 07:43:33;;;;;;;;;;;12.50;99.90;;;;;;5014279;28;20485;-80
2021/11/07 07:46:04;;;;;;;;;;;12.50;99.90;;;;;;5014210;28;20374;-81
2021/11/07 07:48:39;;;;;;;;;;;12.60;99.90;;;;;;5014232;28;19905;-81
2021/11/07 07:51:04;;;;;;;;;;;12.60;99.90;;;;;;5014327;28;19905;-79
2021/11/07 07:53:30;;;;;;;;;;;12.80;99.90;;;;;;5012821;28;19912;-79
2021/11/07 07:55:56;;;;;;;;;;;12.90;99.90;;;;;;5014165;28;19947;-79
2021/11/07 07:58:22;;;;;;;;;;;12.80;99.90;;;;;;5014031;28;19905;-80
2021/11/07 08:00:47;;;;;;;;;;;12.80;99.90;;;;;;5014458;28;19968;-80
2021/11/07 08:03:13;;;;;;;;;;;12.80;99.90;;;;;;5014510;28;19936;-80
2021/11/07 08:05:39;;;;;;;;;;;13.00;99.90;;;;;;5013960;28;19913;-80
2021/11/07 08:08:04;;;;;;;;;;;13.30;99.90;;;;;;5013909;28;19937;-80
2021/11/07 08:10:30;;;;;;;;;;;13.40;99.90;;;;;;5012440;28;19917;-79
2021/11/07 08:12:56;;;;;;;;;;;13.30;99.90;;;;;;5014159;28;20335;-80
2021/11/07 08:15:21;;;;;;;;;;;13.10;99.90;;;;;;5012655;28;19983;-80
2021/11/07 08:17:47;;;;;;;;;;;13.00;99.90;;;;;;5013977;28;19905;-82
2021/11/07 08:20:13;;;;;;;;;;;13.10;99.90;;;;;;5013899;28;20269;-81
2021/11/07 08:22:41;;;;;;;;;;;13.30;99.90;;;;;;5014353;28;20004;-80
2021/11/07 08:25:20;;;;;;;;;;;13.70;99.90;;;;;;5018230;28;19910;-80
2021/11/07 08:27:48;;;;;;;;;;;13.70;99.90;;;;;;5016332;28;19906;-80
2021/11/07 08:30:15;;;;;;;;;;;13.60;99.90;;;;;;5017757;28;19905;-81
2021/11/07 08:32:40;;;;;;;;;;;13.60;99.90;;;;;;5016426;28;19916;-80
2021/11/07 08:35:06;;;;;;;;;;;13.80;99.90;;;;;;5017695;28;19905;-80
2021/11/07 08:37:40;;;;;;;;;;;14.00;99.90;;;;;;5018068;28;19905;-80
2021/11/07 08:40:08;;;;;;;;;;;14.30;99.90;;;;;;5017625;28;19906;-80
2021/11/07 08:42:42;;;;;;;;;;;14.60;99.90;;;;;;5017510;28;20419;-80
2021/11/07 09:01:41;;;;;;;;;;;15.20;99.90;;;;;;5017178;28;19912;-78
2021/11/07 09:06:56;;;;;;;;;;;15.30;99.90;;;;;;5016863;28;19909;-80
2021/11/07 09:09:23;;;;;;;;;;;15.60;99.90;;;;;;5017506;28;19906;-80
2021/11/07 09:11:51;;;;;;;;;;;16.40;99.90;;;;;;5016567;28;19917;-80
2021/11/07 09:14:18;;;;;;;;;;;16.50;99.90;;;;;;5015510;28;19905;-78
2021/11/07 09:16:44;;;;;;;;;;;18.70;99.90;;;;;;5016822;28;19991;-79
2021/11/07 09:19:12;;;;;;;;;;;20.70;98.70;;;;;;5016811;28;20424;-79
2021/11/07 09:21:42;;;;;;;;;;;21.20;94.50;;;;;;5015492;28;19906;-79
2021/11/07 09:24:13;;;;;;;;;;;20.30;94.40;;;;;;5016640;28;19917;-79
2021/11/07 09:26:45;;;;;;;;;;;20.90;92.90;;;;;;5016889;28;20373;-80
2021/11/07 09:29:20;;;;;;;;;;;22.80;88.80;;;;;;5014996;28;20237;-80
2021/11/07 09:32:09;;;;;;;;;;;23.40;83.00;;;;;;5016849;28;19905;-80
2021/11/07 09:34:42;;;;;;;;;;;24.30;78.00;;;;;;5016003;28;19990;-80
2021/11/07 09:37:19;;;;;;;;;;;25.50;71.40;;;;;;5016748;28;20028;-79
2021/11/07 09:39:50;;;;;;;;;;;25.20;68.30;;;;;;5015073;28;19944;-80
2021/11/07 09:44:52;;;;;;;;;;;25.90;66.70;;;;;;5016007;28;19909;-79
2021/11/07 09:47:17;;;;;;;;;;;26.10;64.60;;;;;;5016700;28;19905;-80
2021/11/07 09:49:49;;;;;;;;;;;26.30;64.70;;;;;;5016219;28;19912;-81
2021/11/07 09:52:25;;;;;;;;;;;25.60;63.80;;;;;;5016340;28;19912;-79
2021/11/07 09:54:59;;;;;;;;;;;24.80;66.20;;;;;;5016301;28;19932;-79
2021/11/07 09:57:26;;;;;;;;;;;24.30;68.00;;;;;;5014594;28;20351;-79
2021/11/07 09:59:54;;;;;;;;;;;24.20;67.40;;;;;;5016219;28;19909;-79
2021/11/07 10:02:21;;;;;;;;;;;23.40;67.30;;;;;;5015949;28;19905;-79
2021/11/07 10:04:47;;;;;;;;;;;23.20;69.10;;;;;;5015962;28;19940;-78
2021/11/07 10:07:14;;;;;;;;;;;22.10;71.50;;;;;;5015994;28;19905;-78
2021/11/07 10:09:41;;;;;;;;;;;21.50;73.40;;;;;;5015816;28;19911;-79
2021/11/07 10:12:12;;;;;;;;;;;21.10;73.50;;;;;;5015434;28;20024;-78
2021/11/07 10:14:44;;;;;;;;;;;21.00;73.40;;;;;;5015965;28;19909;-80
2021/11/07 10:17:22;;;;;;;;;;;21.40;73.40;;;;;;5014447;28;19944;-79
2021/11/07 10:19:58;;;;;;;;;;;22.20;70.80;;;;;;5015767;28;19960;-79
2021/11/07 10:22:24;;;;;;;;;;;22.50;70.40;;;;;;5015657;28;19996;-79
2021/11/07 10:24:54;;;;;;;;;;;22.60;67.80;;;;;;5014321;28;20342;-80
2021/11/07 10:27:19;;;;;;;;;;;23.40;67.80;;;;;;5015516;28;19956;-79
2021/11/07 10:29:48;;;;;;;;;;;25.20;63.20;;;;;;5015501;28;19910;-80
2021/11/07 10:32:25;;;;;;;;;;;26.10;61.70;;;;;;5015628;28;19905;-79
2021/11/07 10:35:27;;;;;;;;;;;25.00;61.60;;;;;;5015678;28;19905;-79
2021/11/07 10:43:12;;;;;;;;;;;22.20;67.30;;;;;;5015080;28;19909;-78
2021/11/07 10:52:03;;;;;;;;;;;21.90;67.70;;;;;;5014276;28;19979;-79
2021/11/07 10:53:57;;;;;;;;;;;20.80;70.60;;;;;;5015093;28;19913;-79
2021/11/07 10:56:23;;;;;;;;;;;20.70;72.00;;;;;;5015054;28;20258;-80
2021/11/07 10:58:50;;;;;;;;;;;20.80;71.30;;;;;;5013756;28;19912;-79
2021/11/07 11:01:19;;;;;;;;;;;21.10;72.10;;;;;;5013679;28;19948;-79
2021/11/07 11:03:47;;;;;;;;;;;21.30;71.60;;;;;;5014831;28;19953;-78
2021/11/07 11:06:13;;;;;;;;;;;22.50;69.90;;;;;;5015450;28;19911;-78
2021/11/07 11:08:43;;;;;;;;;;;22.60;66.40;;;;;;5014790;28;19959;-79
2021/11/07 11:11:21;;;;;;;;;;;21.90;67.50;;;;;;5013252;28;19921;-80
2021/11/07 11:16:37;;;;;;;;;;;21.50;68.00;;;;;;5014766;28;20285;-78
2021/11/07 11:29:41;;;;;;;;;;;21.80;68.60;;;;;;5005998;28;19909;-78
2021/11/07 11:32:18;;;;;;;;;;;21.30;67.60;;;;;;5013219;28;19913;-80
2021/11/07 11:34:51;;;;;;;;;;;21.00;68.00;;;;;;5012893;28;19905;-77
2021/11/07 11:37:30;;;;;;;;;;;22.40;66.80;;;;;;5014425;28;19960;-79
2021/11/07 11:40:06;;;;;;;;;;;23.60;62.50;;;;;;5012960;28;20286;-77
2021/11/07 11:43:21;;;;;;;;;;;23.30;62.80;;;;;;5012736;28;19917;-79
2021/11/07 11:45:22;;;;;;;;;;;24.60;60.40;;;;;;5013543;28;19963;-79
2021/11/07 11:48:20;;;;;;;;;;;23.90;60.70;;;;;;5029404;28;19912;-79
2021/11/07 11:51:00;;;;;;;;;;;22.90;62.90;;;;;;5014303;28;19952;-78
2021/11/07 11:54:25;;;;;;;;;;;22.20;65.00;;;;;;5014197;28;20281;-79
2021/11/07 11:56:27;;;;;;;;;;;21.80;65.00;;;;;;5010041;28;19909;-78
2021/11/07 11:59:00;;;;;;;;;;;21.30;66.80;;;;;;5012323;28;19905;-78
2021/11/07 12:01:34;;;;;;;;;;;21.50;67.00;;;;;;5014093;28;19912;-79
2021/11/07 12:04:24;;;;;;;;;;;21.50;66.90;;;;;;5012440;28;19915;-80
2021/11/07 12:06:52;;;;;;;;;;;24.40;64.40;;;;;;5014152;28;19905;-79
2021/11/07 12:12:08;;;;;;;;;;;34.00;47.80;;;;;;5013699;28;19925;-79
2021/11/07 12:14:54;;;;;;;;;;;30.00;47.50;;;;;;5012424;28;19906;-79
2021/11/07 12:17:27;;;;;;;;;;;27.80;51.80;;;;;;5013928;28;19932;-79
2021/11/07 12:19:52;;;;;;;;;;;28.90;50.20;;;;;;5013828;28;19914;-79
2021/11/07 12:22:22;;;;;;;;;;;33.10;47.60;;;;;;5012523;28;20377;-80
2021/11/07 12:24:48;;;;;;;;;;;34.40;43.80;;;;;;5013741;28;19909;-79
2021/11/07 12:27:16;;;;;;;;;;;32.10;44.60;;;;;;5014101;28;19905;-79
2021/11/07 12:29:43;;;;;;;;;;;28.10;49.10;;;;;;5012471;28;19914;-78
2021/11/07 12:32:12;;;;;;;;;;;25.90;53.40;;;;;;5012469;28;19959;-79
2021/11/07 12:35:08;;;;;;;;;;;23.90;56.70;;;;;;5014051;28;19912;-78
2021/11/07 12:40:34;;;;;;;;;;;21.10;62.20;;;;;;5013644;28;20285;-78
2021/11/07 12:43:01;;;;;;;;;;;23.50;58.70;;;;;;5013655;28;19936;-78
2021/11/07 12:45:35;;;;;;;;;;;23.30;58.00;;;;;;5012280;28;20008;-79
2021/11/07 12:48:07;;;;;;;;;;;26.60;54.60;;;;;;5013966;28;19913;-80
2021/11/07 12:50:49;;;;;;;;;;;28.50;49.60;;;;;;5012082;28;20434;-79
2021/11/07 12:53:15;;;;;;;;;;;26.60;51.30;;;;;;5013592;28;19905;-80
2021/11/07 12:55:41;;;;;;;;;;;24.90;54.00;;;;;;5013735;28;20440;-79
2021/11/07 12:58:07;;;;;;;;;;;24.20;57.00;;;;;;5012242;28;20304;-79
2021/11/07 13:00:33;;;;;;;;;;;23.30;56.50;;;;;;5013521;28;19956;-77
2021/11/07 13:03:24;;;;;;;;;;;22.90;58.60;;;;;;5013564;28;19953;-78
2021/11/07 13:05:53;;;;;;;;;;;23.10;57.90;;;;;;5011224;28;19909;-79
2021/11/07 13:08:21;;;;;;;;;;;23.40;56.60;;;;;;5013307;28;19992;-80
2021/11/07 13:31:40;;;;;;;;;;;21.70;62.00;;;;;;5016649;28;20004;-79
2021/11/07 13:34:18;;;;;;;;;;;21.10;62.90;;;;;;5015104;28;19928;-77
2021/11/07 13:36:45;;;;;;;;;;;20.50;63.30;;;;;;5015030;28;19928;-78
2021/11/07 13:39:13;;;;;;;;;;;20.00;64.80;;;;;;5016433;28;19905;-78
2021/11/07 13:41:41;;;;;;;;;;;19.70;66.30;;;;;;5016481;28;19909;-79
2021/11/07 13:44:22;;;;;;;;;;;19.30;68.30;;;;;;5016333;28;19944;-79
2021/11/07 13:47:01;;;;;;;;;;;19.30;69.00;;;;;;5016464;28;19905;-79
2021/11/07 13:49:27;;;;;;;;;;;18.80;70.30;;;;;;5015126;28;19913;-78
2021/11/07 13:51:57;;;;;;;;;;;19.00;70.90;;;;;;5016237;28;19905;-77
2021/11/07 13:54:24;;;;;;;;;;;18.90;71.30;;;;;;5016309;28;19906;-78
2021/11/07 13:56:51;;;;;;;;;;;18.80;71.90;;;;;;5016148;28;19955;-79
2021/11/07 13:59:55;;;;;;;;;;;18.50;72.40;;;;;;5014874;28;19913;-79
2021/11/07 14:02:22;;;;;;;;;;;18.70;72.60;;;;;;5014249;28;19905;-78
2021/11/07 14:04:50;;;;;;;;;;;18.80;72.20;;;;;;5013944;28;19910;-78
2021/11/07 14:07:17;;;;;;;;;;;18.80;72.60;;;;;;5014830;28;19963;-78
2021/11/07 14:09:58;;;;;;;;;;;18.80;71.60;;;;;;5015910;28;19905;-78
2021/11/07 14:12:29;;;;;;;;;;;18.60;71.30;;;;;;5014251;28;20267;-77
2021/11/07 14:15:22;;;;;;;;;;;18.60;70.60;;;;;;5014552;28;19905;-79
2021/11/07 14:17:49;;;;;;;;;;;18.70;71.90;;;;;;5006715;28;19906;-79
2021/11/07 14:20:32;;;;;;;;;;;18.90;71.80;;;;;;5015726;28;19912;-79
2021/11/07 14:23:01;;;;;;;;;;;19.40;71.20;;;;;;5015810;28;19905;-78
2021/11/07 14:25:27;;;;;;;;;;;19.30;69.80;;;;;;5014311;28;19995;-80
2021/11/07 14:27:58;;;;;;;;;;;19.30;70.40;;;;;;5015587;28;19905;-79
2021/11/07 14:30:34;;;;;;;;;;;19.30;70.90;;;;;;5015817;28;19912;-78
2021/11/07 14:33:07;;;;;;;;;;;18.80;72.50;;;;;;5015746;28;20386;-77
2021/11/07 14:35:34;;;;;;;;;;;18.70;72.20;;;;;;5013905;28;20315;-78
2021/11/07 14:38:05;;;;;;;;;;;18.30;72.20;;;;;;5015567;28;19905;-78
2021/11/07 14:40:59;;;;;;;;;;;18.20;74.20;;;;;;5013945;28;19909;-78
2021/11/07 14:43:36;;;;;;;;;;;18.00;74.10;;;;;;5013773;28;19912;-77
2021/11/07 14:46:19;;;;;;;;;;;17.80;74.80;;;;;;5013778;28;19909;-77
2021/11/07 14:56:31;;;;;;;;;;;18.00;75.20;;;;;;5015524;28;19905;-78
2021/11/07 15:01:57;;;;;;;;;;;17.50;76.50;;;;;;5014751;28;20378;-78
2021/11/07 15:04:38;;;;;;;;;;;17.70;76.20;;;;;;5015013;28;19916;-78
2021/11/07 15:07:26;;;;;;;;;;;17.80;75.90;;;;;;5013634;28;19906;-78
2021/11/07 15:10:08;;;;;;;;;;;18.00;75.20;;;;;;5015146;28;19913;-78
2021/11/07 15:12:48;;;;;;;;;;;18.40;75.00;;;;;;5013090;28;20341;-79
2021/11/07 15:15:38;;;;;;;;;;;18.90;73.50;;;;;;5013242;28;20267;-78
2021/11/07 15:18:28;;;;;;;;;;;19.30;70.20;;;;;;5014926;28;19912;-78
2021/11/07 15:21:19;;;;;;;;;;;18.50;72.10;;;;;;5013107;28;19913;-78
2021/11/07 15:23:42;;;;;;;;;;;18.20;72.60;;;;;;5014249;28;20003;-78
2021/11/07 15:26:27;;;;;;;;;;;18.00;72.40;;;;;;5014522;28;20281;-78
2021/11/07 15:28:58;;;;;;;;;;;17.70;72.80;;;;;;5012951;28;19912;-77
2021/11/07 15:31:29;;;;;;;;;;;17.60;75.30;;;;;;5012968;28;19905;-78
2021/11/07 15:33:54;;;;;;;;;;;17.50;74.40;;;;;;5012407;28;19906;-78
2021/11/07 15:36:27;;;;;;;;;;;17.60;74.90;;;;;;5014563;28;20341;-79
2021/11/07 15:39:03;;;;;;;;;;;17.40;75.60;;;;;;5014236;28;20401;-77
2021/11/07 15:41:29;;;;;;;;;;;17.30;76.30;;;;;;5014505;28;19905;-78
2021/11/07 15:43:55;;;;;;;;;;;17.20;76.40;;;;;;5014319;28;19915;-78
2021/11/07 15:46:20;;;;;;;;;;;16.90;77.70;;;;;;5012977;28;20000;-78
2021/11/07 15:48:49;;;;;;;;;;;16.90;78.40;;;;;;5014146;28;19933;-78
2021/11/07 15:56:40;;;;;;;;;;;16.70;80.60;;;;;;5013867;28;19992;-78
2021/11/07 16:04:39;;;;;;;;;;;16.10;82.40;;;;;;5013647;28;19916;-77
2021/11/07 16:07:15;;;;;;;;;;;15.90;84.00;;;;;;5012449;28;19913;-78
2021/11/07 16:12:35;;;;;;;;;;;15.60;85.00;;;;;;5013468;28;19925;-77
2021/11/07 16:15:13;;;;;;;;;;;15.40;86.10;;;;;;5013980;28;19988;-77
2021/11/07 16:17:42;;;;;;;;;;;15.20;86.30;;;;;;5012389;28;20020;-78
2021/11/07 16:20:17;;;;;;;;;;;14.90;88.60;;;;;;5013886;28;19941;-77
2021/11/07 16:22:48;;;;;;;;;;;14.90;88.60;;;;;;5013945;28;19999;-78
2021/11/07 16:25:15;;;;;;;;;;;14.80;89.40;;;;;;5014165;28;19910;-77
2021/11/07 16:27:43;;;;;;;;;;;14.80;89.80;;;;;;5013763;28;19996;-78
2021/11/07 16:30:14;;;;;;;;;;;14.70;90.00;;;;;;5013748;28;19935;-80
2021/11/07 16:35:42;;;;;;;;;;;14.30;91.30;;;;;;5012551;28;19981;-78
2021/11/07 16:40:55;;;;;;;;;;;14.10;92.10;;;;;;5013391;28;19937;-78
2021/11/07 16:43:21;;;;;;;;;;;13.80;93.10;;;;;;5012098;28;19909;-77
2021/11/07 16:45:48;;;;;;;;;;;13.60;94.10;;;;;;5015895;28;19917;-77
2021/11/07 16:48:15;;;;;;;;;;;13.40;94.70;;;;;;5017487;28;19905;-77
2021/11/07 16:53:31;;;;;;;;;;;13.40;95.50;;;;;;5017253;28;19955;-79